createdAt,value
2023-03-30T00:01:19.155Z,4.00
2023-03-30T00:03:49.999Z,4.80
2023-03-30T00:06:23.176Z,4.80
2023-03-30T00:08:59.065Z,3.10
2023-03-30T00:11:34.341Z,3.40
2023-03-30T00:14:02.619Z,4.20
2023-03-30T00:16:30.696Z,4.70
2023-03-30T00:18:58.768Z,6.60
2023-03-30T00:21:28.242Z,4.40
2023-03-30T00:23:58.937Z,5.40
2023-03-30T00:26:27.149Z,4.10
2023-03-30T00:28:55.177Z,3.10
2023-03-30T00:31:23.688Z,4.80
2023-03-30T00:33:52.343Z,3.60
2023-03-30T00:36:22.437Z,4.10
2023-03-30T00:38:53.212Z,4.30
2023-03-30T00:41:21.830Z,3.60
2023-03-30T00:44:06.597Z,3.40
2023-03-30T00:46:35.397Z,4.40
2023-03-30T00:49:06.288Z,3.20
2023-03-30T00:51:38.061Z,5.00
2023-03-30T00:54:08.630Z,3.70
2023-03-30T00:56:37.743Z,4.30
2023-03-30T00:59:05.779Z,4.20
2023-03-30T01:01:39.360Z,3.80
2023-03-30T01:04:10.064Z,3.60
2023-03-30T01:06:40.589Z,7.20
2023-03-30T01:09:09.057Z,4.00
2023-03-30T01:11:40.983Z,4.80
2023-03-30T01:14:10.448Z,2.70
2023-03-30T01:17:13.501Z,3.50
2023-03-30T01:20:12.775Z,4.60
2023-03-30T01:23:28.547Z,3.40
2023-03-30T01:26:21.724Z,3.10
2023-03-30T01:28:57.648Z,3.00
2023-03-30T01:31:45.786Z,5.50
2023-03-30T01:34:19.004Z,3.60
2023-03-30T01:37:02.618Z,3.40
2023-03-30T01:39:41.735Z,4.30
2023-03-30T01:42:22.149Z,3.90
2023-03-30T01:45:01.893Z,5.10
2023-03-30T01:47:36.627Z,4.60
2023-03-30T01:50:17.284Z,3.60
2023-03-30T01:52:56.165Z,6.20
2023-03-30T01:55:44.012Z,6.70
2023-03-30T01:58:19.547Z,6.40
2023-03-30T02:00:50.214Z,3.40
2023-03-30T02:03:22.868Z,3.70
2023-03-30T02:05:52.282Z,3.40
2023-03-30T02:08:26.030Z,6.70
2023-03-30T02:10:54.860Z,4.00
2023-03-30T02:13:22.826Z,3.10
2023-03-30T02:16:32.023Z,4.10
2023-03-30T02:21:33.249Z,5.20
2023-03-30T02:24:01.309Z,3.80
2023-03-30T02:26:30.432Z,4.30
2023-03-30T02:28:59.769Z,5.10
2023-03-30T02:31:29.086Z,4.80
2023-03-30T02:33:59.110Z,4.40
2023-03-30T02:36:50.932Z,4.10
2023-03-30T02:39:37.258Z,4.60
2023-03-30T02:42:33.465Z,4.80
2023-03-30T02:45:20.172Z,6.40
2023-03-30T02:48:03.719Z,4.30
2023-03-30T02:50:45.631Z,5.40
2023-03-30T02:53:42.220Z,6.00
2023-03-30T02:56:19.307Z,5.40
2023-03-30T02:59:04.100Z,5.10
2023-03-30T03:01:48.425Z,8.50
2023-03-30T03:04:18.886Z,4.70
2023-03-30T03:07:11.436Z,5.00
2023-03-30T03:09:39.373Z,5.70
2023-03-30T03:12:08.023Z,5.10
2023-03-30T03:14:58.181Z,4.60
2023-03-30T03:17:34.739Z,4.70
2023-03-30T03:20:10.458Z,7.10
2023-03-30T03:22:38.857Z,4.00
2023-03-30T03:25:08.668Z,5.10
2023-03-30T03:27:49.668Z,6.20
2023-03-30T03:30:22.333Z,5.30
2023-03-30T03:33:00.857Z,4.30
2023-03-30T03:35:30.095Z,4.50
2023-03-30T03:37:58.929Z,6.10
2023-03-30T03:40:28.023Z,4.20
2023-03-30T03:42:56.191Z,8.20
2023-03-30T03:45:26.647Z,4.20
2023-03-30T03:47:57.590Z,3.50
2023-03-30T03:50:36.125Z,4.50
2023-03-30T03:53:04.949Z,8.30
2023-03-30T03:55:34.916Z,5.00
2023-03-30T03:58:04.272Z,5.70
2023-03-30T04:00:32.759Z,8.40
2023-03-30T04:03:09.255Z,4.20
2023-03-30T04:05:42.623Z,4.90
2023-03-30T04:08:12.001Z,6.30
2023-03-30T04:10:41.595Z,4.80
2023-03-30T04:13:28.664Z,4.40
2023-03-30T04:16:20.048Z,5.10
2023-03-30T04:19:16.028Z,4.40
2023-03-30T04:22:00.905Z,5.40
2023-03-30T04:24:59.370Z,5.70
2023-03-30T04:27:53.738Z,3.90
2023-03-30T04:30:41.063Z,4.30
2023-03-30T04:33:51.801Z,5.60
2023-03-30T04:36:58.891Z,5.00
2023-03-30T04:39:35.746Z,6.90
2023-03-30T04:42:22.648Z,4.90
2023-03-30T04:45:14.706Z,4.50
2023-03-30T04:48:02.901Z,4.90
2023-03-30T04:50:47.537Z,5.20
2023-03-30T04:53:34.124Z,5.60
2023-03-30T04:56:14.091Z,7.90
2023-03-30T04:58:51.346Z,5.50
2023-03-30T05:01:43.297Z,5.90
2023-03-30T05:04:30.929Z,4.80
2023-03-30T05:07:18.781Z,8.00
2023-03-30T05:09:59.159Z,6.90
2023-03-30T05:12:45.884Z,3.50
2023-03-30T05:15:33.855Z,5.60
2023-03-30T05:21:31.564Z,6.20
2023-03-30T05:24:28.989Z,4.30
2023-03-30T05:27:20.114Z,5.60
2023-03-30T05:30:02.164Z,4.90
2023-03-30T05:32:52.458Z,5.80
2023-03-30T05:35:47.321Z,8.60
2023-03-30T05:38:36.156Z,10.70
2023-03-30T05:41:14.999Z,5.90
2023-03-30T05:44:02.040Z,5.40
2023-03-30T05:46:36.443Z,5.20
2023-03-30T05:49:22.995Z,5.90
2023-03-30T05:52:06.925Z,7.80
2023-03-30T05:55:02.021Z,5.80
2023-03-30T05:57:52.850Z,5.70
2023-03-30T06:00:36.889Z,7.40
2023-03-30T06:03:13.831Z,8.20
2023-03-30T06:05:44.239Z,6.00
2023-03-30T06:08:13.703Z,5.00
2023-03-30T06:10:52.240Z,7.30
2023-03-30T06:13:20.087Z,6.90
2023-03-30T06:16:02.947Z,4.30
2023-03-30T06:18:31.650Z,5.10
2023-03-30T06:21:08.627Z,5.90
2023-03-30T06:24:06.284Z,7.10
2023-03-30T06:26:36.444Z,4.50
2023-03-30T06:29:05.042Z,6.10
2023-03-30T06:31:35.316Z,5.00
2023-03-30T06:34:22.906Z,4.60
2023-03-30T06:36:52.283Z,5.90
2023-03-30T06:39:22.031Z,6.50
2023-03-30T06:41:51.150Z,4.80
2023-03-30T06:44:38.042Z,6.20
2023-03-30T06:47:12.085Z,5.20
2023-03-30T06:49:40.983Z,7.30
2023-03-30T06:52:29.550Z,9.70
2023-03-30T06:54:57.645Z,8.00
2023-03-30T06:57:25.934Z,6.90
2023-03-30T06:59:54.151Z,5.90
2023-03-30T07:02:22.504Z,5.70
2023-03-30T07:05:18.049Z,5.00
2023-03-30T07:08:07.470Z,4.20
2023-03-30T07:10:36.226Z,5.90
2023-03-30T07:13:06.238Z,7.60
2023-03-30T07:15:34.522Z,5.50
2023-03-30T07:18:03.395Z,4.70
2023-03-30T07:20:32.605Z,8.30
2023-03-30T07:23:15.018Z,10.40
2023-03-30T07:25:44.316Z,5.80
2023-03-30T07:28:23.868Z,4.80
2023-03-30T07:30:53.083Z,4.20
2023-03-30T07:33:22.989Z,4.90
2023-03-30T07:35:51.586Z,6.60
2023-03-30T07:38:23.117Z,8.20
2023-03-30T07:40:54.064Z,9.40
2023-03-30T07:43:22.916Z,6.00
2023-03-30T07:45:58.008Z,5.70
2023-03-30T07:48:31.795Z,5.40
2023-03-30T07:51:09.236Z,3.80
2023-03-30T07:53:40.055Z,3.60
2023-03-30T07:56:15.384Z,6.80
2023-03-30T07:58:47.161Z,6.00
2023-03-30T08:01:23.715Z,5.90
2023-03-30T08:04:07.576Z,3.50
2023-03-30T08:06:37.948Z,4.10
2023-03-30T08:09:06.134Z,3.90
2023-03-30T08:11:36.196Z,3.60
2023-03-30T08:14:04.268Z,4.60
2023-03-30T08:16:32.381Z,3.80
2023-03-30T08:19:00.449Z,6.70
2023-03-30T08:21:28.974Z,6.30
2023-03-30T08:23:59.046Z,4.80
2023-03-30T08:26:28.385Z,6.70
2023-03-30T08:28:57.004Z,3.90
2023-03-30T08:31:24.984Z,6.00
2023-03-30T08:33:56.160Z,3.50
2023-03-30T08:36:24.661Z,5.90
2023-03-30T08:38:59.147Z,4.20
2023-03-30T08:41:30.239Z,3.80
2023-03-30T08:44:09.500Z,4.80
2023-03-30T08:46:38.391Z,4.90
2023-03-30T08:49:08.240Z,6.70
2023-03-30T08:51:37.034Z,5.30
2023-03-30T08:54:06.470Z,4.40
2023-03-30T08:56:35.995Z,4.40
2023-03-30T08:59:20.669Z,3.80
2023-03-30T09:01:56.947Z,3.90
2023-03-30T09:04:40.894Z,5.60
2023-03-30T09:07:20.656Z,4.40
2023-03-30T09:09:49.557Z,3.10
2023-03-30T09:12:22.509Z,4.60
2023-03-30T09:14:56.148Z,4.20
2023-03-30T09:17:37.288Z,4.40
2023-03-30T09:20:16.206Z,3.30
2023-03-30T09:22:44.401Z,4.20
2023-03-30T09:25:35.007Z,2.80
2023-03-30T09:28:08.811Z,3.40
2023-03-30T09:30:42.128Z,3.70
2023-03-30T09:33:18.560Z,2.40
2023-03-30T09:36:10.332Z,3.00
2023-03-30T09:38:43.308Z,2.20
2023-03-30T09:41:17.865Z,2.40
2023-03-30T09:43:46.713Z,4.20
2023-03-30T09:46:15.962Z,3.40
2023-03-30T09:48:45.810Z,2.80
2023-03-30T09:51:22.652Z,2.20
2023-03-30T09:54:01.868Z,2.10
2023-03-30T09:56:35.322Z,2.60
2023-03-30T09:59:28.759Z,3.50
2023-03-30T10:02:17.712Z,2.60
2023-03-30T10:04:52.754Z,3.40
2023-03-30T10:07:43.154Z,2.20
2023-03-30T10:10:29.213Z,2.70
2023-03-30T10:13:06.586Z,4.10
2023-03-30T10:15:37.766Z,2.90
2023-03-30T10:18:17.927Z,5.70
2023-03-30T10:20:51.695Z,1.90
2023-03-30T10:23:22.156Z,2.50
2023-03-30T10:25:52.274Z,2.30
2023-03-30T10:28:27.285Z,3.10
2023-03-30T10:31:07.458Z,4.70
2023-03-30T10:33:39.920Z,2.50
2023-03-30T10:36:08.257Z,3.00
2023-03-30T10:38:40.442Z,2.90
2023-03-30T10:41:14.312Z,2.70
2023-03-30T10:43:42.257Z,4.50
2023-03-30T10:46:20.060Z,2.30
2023-03-30T10:48:58.453Z,3.50
2023-03-30T10:51:53.981Z,1.90
2023-03-30T10:54:47.145Z,4.70
2023-03-30T10:57:17.185Z,3.00
2023-03-30T10:59:59.977Z,2.20
2023-03-30T11:02:39.457Z,2.60
2023-03-30T11:05:09.624Z,4.30
2023-03-30T11:07:41.720Z,2.60
2023-03-30T11:10:29.492Z,3.00
2023-03-30T11:13:19.342Z,2.10
2023-03-30T11:15:59.550Z,2.80
2023-03-30T11:18:41.507Z,3.00
2023-03-30T11:21:41.641Z,5.00
2023-03-30T11:24:20.034Z,2.20
2023-03-30T11:26:53.772Z,2.60
2023-03-30T11:29:32.574Z,4.20
2023-03-30T11:32:26.081Z,2.60
2023-03-30T11:35:09.496Z,3.50
2023-03-30T11:37:50.137Z,2.60
2023-03-30T11:40:23.151Z,2.20
2023-03-30T11:42:52.459Z,3.20
2023-03-30T11:45:39.274Z,1.90
2023-03-30T11:48:30.768Z,3.40
2023-03-30T11:51:09.471Z,2.10
2023-03-30T11:53:46.784Z,3.10
2023-03-30T11:56:19.896Z,2.90
2023-03-30T11:59:09.191Z,4.10
2023-03-30T12:01:55.925Z,2.00
2023-03-30T12:04:29.058Z,3.30
2023-03-30T12:07:02.760Z,2.40
2023-03-30T12:10:09.516Z,2.00
2023-03-30T12:12:56.172Z,2.50
2023-03-30T12:15:31.409Z,4.20
2023-03-30T12:18:38.073Z,2.50
2023-03-30T12:21:33.196Z,2.40
2023-03-30T12:24:20.115Z,1.60
2023-03-30T12:27:02.151Z,2.80
2023-03-30T12:30:02.313Z,2.00
2023-03-30T12:32:32.848Z,2.40
2023-03-30T12:35:00.724Z,2.10
2023-03-30T12:37:33.543Z,2.40
2023-03-30T12:40:09.442Z,2.30
2023-03-30T12:42:46.536Z,3.30
2023-03-30T12:45:33.888Z,3.70
2023-03-30T12:48:34.677Z,2.50
2023-03-30T12:51:17.063Z,2.80
2023-03-30T12:53:52.693Z,2.00
2023-03-30T12:56:29.020Z,2.90
2023-03-30T12:59:36.319Z,1.40
2023-03-30T13:02:43.823Z,2.60
2023-03-30T13:05:21.415Z,1.70
2023-03-30T13:07:50.795Z,1.70
2023-03-30T13:10:31.694Z,2.90
2023-03-30T13:13:01.533Z,2.30
2023-03-30T13:15:29.448Z,3.90
2023-03-30T13:18:05.237Z,2.40
2023-03-30T13:20:47.094Z,2.30
2023-03-30T13:23:19.443Z,2.10
2023-03-30T13:26:04.342Z,2.00
2023-03-30T13:28:45.964Z,1.90
2023-03-30T13:31:26.227Z,2.00
2023-03-30T13:34:33.471Z,2.10
2023-03-30T13:37:14.779Z,1.70
2023-03-30T13:40:08.850Z,3.00
2023-03-30T13:42:51.217Z,2.20
2023-03-30T13:45:50.211Z,3.10
2023-03-30T13:48:37.078Z,1.80
2023-03-30T13:51:05.244Z,3.50
2023-03-30T13:53:41.862Z,1.80
2023-03-30T13:56:10.088Z,2.10
2023-03-30T13:58:38.829Z,3.60
2023-03-30T14:01:09.209Z,2.00
2023-03-30T14:03:43.639Z,2.00
2023-03-30T14:06:14.512Z,3.20
2023-03-30T14:08:45.165Z,2.10
2023-03-30T14:11:22.519Z,2.30
2023-03-30T14:13:52.417Z,4.30
2023-03-30T14:16:25.033Z,3.90
2023-03-30T14:19:13.412Z,1.80
2023-03-30T14:21:45.450Z,3.80
2023-03-30T14:24:16.968Z,5.00
2023-03-30T14:26:48.269Z,3.10
2023-03-30T14:29:30.342Z,3.40
2023-03-30T14:32:09.405Z,2.50
2023-03-30T14:34:39.431Z,3.10
2023-03-30T14:37:08.061Z,5.40
2023-03-30T14:39:39.870Z,5.90
2023-03-30T14:42:16.027Z,3.00
2023-03-30T14:44:48.595Z,4.40
2023-03-30T14:47:19.158Z,3.80
2023-03-30T14:49:47.639Z,2.90
2023-03-30T14:52:19.829Z,3.30
2023-03-30T14:55:02.511Z,4.10
2023-03-30T14:57:38.037Z,2.50
2023-03-30T15:00:18.670Z,2.90
2023-03-30T15:02:54.400Z,3.50
2023-03-30T15:05:23.892Z,3.60
2023-03-30T15:07:52.246Z,4.90
2023-03-30T15:10:25.361Z,3.40
2023-03-30T15:12:55.356Z,3.90
2023-03-30T15:15:26.454Z,4.30
2023-03-30T15:18:02.351Z,4.90
2023-03-30T15:20:30.878Z,2.90
2023-03-30T15:22:59.074Z,4.20
2023-03-30T15:25:32.777Z,5.40
2023-03-30T15:28:13.660Z,2.90
2023-03-30T15:30:43.899Z,3.40
2023-03-30T15:33:34.911Z,4.30
2023-03-30T15:36:10.395Z,5.70
2023-03-30T15:38:45.710Z,6.10
2023-03-30T15:41:15.636Z,4.70
2023-03-30T15:44:16.676Z,5.10
2023-03-30T15:46:46.509Z,5.70
2023-03-30T15:49:18.616Z,4.50
2023-03-30T15:51:56.142Z,6.10
2023-03-30T15:54:30.530Z,3.70
2023-03-30T15:57:13.401Z,3.90
2023-03-30T15:59:45.442Z,4.10
2023-03-30T16:02:21.699Z,5.30
2023-03-30T16:04:49.980Z,3.20
2023-03-30T16:07:19.965Z,4.80
2023-03-30T16:09:48.095Z,4.60
2023-03-30T16:12:22.341Z,4.30
2023-03-30T16:14:50.513Z,5.60
2023-03-30T16:17:23.414Z,3.50
2023-03-30T16:19:51.684Z,5.00
2023-03-30T16:22:19.603Z,3.40
2023-03-30T16:24:50.379Z,3.60
2023-03-30T16:27:18.600Z,3.00
2023-03-30T16:29:46.497Z,4.50
2023-03-30T16:32:14.285Z,5.00
2023-03-30T16:38:04.818Z,19.20
2023-03-30T16:40:43.246Z,9.20
2023-03-30T16:43:11.706Z,8.80
2023-03-30T16:45:39.645Z,13.20
2023-03-30T16:48:08.254Z,9.80
2023-03-30T16:50:37.669Z,6.40
2023-03-30T16:53:06.093Z,5.90
2023-03-30T16:55:34.250Z,7.20
2023-03-30T16:58:07.817Z,3.90
2023-03-30T17:01:03.177Z,6.70
2023-03-30T17:03:32.222Z,6.00
2023-03-30T17:06:00.431Z,7.90
2023-03-30T17:08:29.737Z,5.80
2023-03-30T17:11:01.021Z,5.10
2023-03-30T17:13:37.003Z,7.00
2023-03-30T17:16:27.373Z,7.00
2023-03-30T17:19:01.048Z,4.70
2023-03-30T17:21:29.598Z,7.50
2023-03-30T17:23:57.985Z,10.10
2023-03-30T17:26:28.639Z,14.50
2023-03-30T17:28:57.369Z,8.90
2023-03-30T17:31:26.223Z,8.80
2023-03-30T17:33:55.077Z,8.20
2023-03-30T17:36:23.846Z,7.10
2023-03-30T17:38:59.968Z,7.70
2023-03-30T17:41:27.909Z,7.00
2023-03-30T17:43:55.834Z,9.40
2023-03-30T17:46:23.821Z,8.00
2023-03-30T17:48:52.142Z,7.60
2023-03-30T17:51:20.673Z,8.80
2023-03-30T17:53:48.636Z,7.10
2023-03-30T17:56:19.557Z,7.00
2023-03-30T17:58:49.162Z,8.20
2023-03-30T18:01:17.147Z,10.00
2023-03-30T18:03:45.658Z,7.70
2023-03-30T18:06:13.890Z,7.40
2023-03-30T18:08:43.213Z,9.20
2023-03-30T18:11:11.776Z,8.10
2023-03-30T18:13:40.023Z,13.00
2023-03-30T18:16:10.570Z,10.90
2023-03-30T18:18:40.863Z,8.80
2023-03-30T18:21:09.785Z,7.90
2023-03-30T18:23:41.523Z,7.80
2023-03-30T18:26:12.724Z,7.20
2023-03-30T18:28:43.752Z,9.00
2023-03-30T18:31:12.768Z,7.10
2023-03-30T18:33:40.862Z,8.50
2023-03-30T18:36:12.553Z,9.10
2023-03-30T18:38:41.737Z,15.10
2023-03-30T18:41:12.960Z,11.70
2023-03-30T18:43:40.959Z,11.50
2023-03-30T18:46:10.836Z,9.90
2023-03-30T18:48:38.980Z,11.50
2023-03-30T18:51:08.977Z,19.40
2023-03-30T18:53:42.609Z,20.80
2023-03-30T18:56:11.617Z,17.30
2023-03-30T18:58:42.164Z,18.60
2023-03-30T19:01:15.808Z,18.50
2023-03-30T19:03:45.324Z,24.80
2023-03-30T19:06:16.530Z,23.60
2023-03-30T19:08:44.545Z,20.70
2023-03-30T19:11:14.411Z,26.40
2023-03-30T19:13:42.426Z,42.20
2023-03-30T19:16:11.255Z,38.10
2023-03-30T19:18:40.132Z,35.50
2023-03-30T19:21:14.007Z,34.40
2023-03-30T19:23:41.966Z,28.80
2023-03-30T19:26:09.890Z,27.10
2023-03-30T19:28:40.152Z,29.90
2023-03-30T19:31:13.474Z,28.80
2023-03-30T19:33:41.605Z,27.20
2023-03-30T19:36:09.821Z,23.10
2023-03-30T19:38:38.449Z,19.80
2023-03-30T19:41:10.957Z,25.70
2023-03-30T19:43:39.459Z,31.20
2023-03-30T19:46:08.710Z,30.90
2023-03-30T19:48:38.345Z,30.80
2023-03-30T19:51:06.783Z,33.80
2023-03-30T19:53:37.933Z,36.10
2023-03-30T19:56:11.165Z,37.60
2023-03-30T19:58:39.262Z,35.60
2023-03-30T20:01:08.268Z,36.90
2023-03-30T20:03:37.141Z,39.70
2023-03-30T20:06:08.876Z,43.70
2023-03-30T20:08:36.903Z,46.30
2023-03-30T20:11:08.707Z,38.20
2023-03-30T20:13:36.529Z,39.00
2023-03-30T20:16:05.968Z,36.90
2023-03-30T20:18:35.734Z,32.30
2023-03-30T20:21:04.546Z,33.90
2023-03-30T20:23:33.195Z,31.80
2023-03-30T20:26:04.374Z,34.10
2023-03-30T20:28:33.992Z,32.70
2023-03-30T20:31:02.051Z,33.70
2023-03-30T20:33:32.937Z,31.10
2023-03-30T20:36:01.318Z,29.50
2023-03-30T20:38:29.349Z,29.20
2023-03-30T20:40:58.575Z,32.60
2023-03-30T20:43:26.467Z,31.00
2023-03-30T20:46:03.884Z,28.00
2023-03-30T20:48:42.002Z,32.30
